createdAt,value
2019-03-08T00:00:08.130Z,10.35
2019-03-08T00:02:36.613Z,11.35
2019-03-08T00:05:06.048Z,5.72
2019-03-08T00:07:34.788Z,5.80
2019-03-08T00:10:03.266Z,3.80
2019-03-08T00:12:31.725Z,7.60
2019-03-08T00:15:00.351Z,4.10
2019-03-08T00:17:28.759Z,11.73
2019-03-08T00:19:57.302Z,3.72
2019-03-08T00:22:26.056Z,4.72
2019-03-08T00:24:54.894Z,6.25
2019-03-08T00:27:23.368Z,4.22
2019-03-08T00:29:51.913Z,12.23
2019-03-08T00:32:20.386Z,8.65
2019-03-08T00:34:48.844Z,4.62
2019-03-08T00:37:17.562Z,3.35
2019-03-08T00:39:46.057Z,3.60
2019-03-08T00:42:14.514Z,3.58
2019-03-08T00:44:42.988Z,4.17
2019-03-08T00:47:11.550Z,3.92
2019-03-08T00:49:40.033Z,3.90
2019-03-08T00:52:08.870Z,4.15
2019-03-08T00:54:37.343Z,6.33
2019-03-08T00:57:05.873Z,3.75
2019-03-08T00:59:34.368Z,4.10
2019-03-08T01:02:02.932Z,3.98
2019-03-08T01:04:31.414Z,3.95
2019-03-08T01:07:00.184Z,4.75
2019-03-08T01:09:28.667Z,3.40
2019-03-08T01:11:57.825Z,2.77
2019-03-08T01:14:26.324Z,4.72
2019-03-08T01:16:54.843Z,2.87
2019-03-08T01:19:23.303Z,3.27
2019-03-08T01:21:52.159Z,3.85
2019-03-08T01:24:20.619Z,3.72
2019-03-08T01:26:49.105Z,3.02
2019-03-08T01:29:17.634Z,5.50
2019-03-08T01:31:46.114Z,3.50
2019-03-08T01:34:14.672Z,4.03
2019-03-08T01:36:43.477Z,5.17
2019-03-08T01:39:12.036Z,4.53
2019-03-08T01:41:40.570Z,6.15
2019-03-08T01:44:09.210Z,4.15
2019-03-08T01:46:37.713Z,3.90
2019-03-08T01:49:06.170Z,3.10
2019-03-08T01:51:34.903Z,4.05
2019-03-08T01:54:03.392Z,3.42
2019-03-08T01:56:31.862Z,3.92
2019-03-08T01:59:00.354Z,3.98
2019-03-08T02:01:28.881Z,5.15
2019-03-08T02:03:57.344Z,4.15
2019-03-08T02:06:26.008Z,5.35
2019-03-08T02:08:54.460Z,2.70
2019-03-08T02:11:23.024Z,3.33
2019-03-08T02:13:51.491Z,3.37
2019-03-08T02:16:19.972Z,2.90
2019-03-08T02:18:48.428Z,3.45
2019-03-08T02:21:17.176Z,3.72
2019-03-08T02:23:45.628Z,3.25
2019-03-08T02:26:14.085Z,3.00
2019-03-08T02:28:42.589Z,2.77
2019-03-08T02:31:11.044Z,2.58
2019-03-08T02:33:39.586Z,3.40
2019-03-08T02:36:08.589Z,3.05
2019-03-08T02:38:37.125Z,2.22
2019-03-08T02:41:05.766Z,3.02
2019-03-08T02:43:34.258Z,3.47
2019-03-08T02:46:02.818Z,2.92
2019-03-08T02:48:31.272Z,2.72
2019-03-08T02:51:00.018Z,2.67
2019-03-08T02:53:28.473Z,3.02
2019-03-08T02:55:56.971Z,3.52
2019-03-08T02:58:25.435Z,3.77
2019-03-08T03:00:53.971Z,2.92
2019-03-08T03:03:22.498Z,3.30
2019-03-08T03:05:51.232Z,4.08
2019-03-08T03:08:19.764Z,3.83
2019-03-08T03:10:48.300Z,4.08
2019-03-08T03:13:16.788Z,3.17
2019-03-08T03:15:45.264Z,3.65
2019-03-08T03:18:13.818Z,3.60
2019-03-08T03:20:42.302Z,3.80
2019-03-08T03:23:10.786Z,4.47
2019-03-08T03:25:39.244Z,4.20
2019-03-08T03:28:07.735Z,4.22
2019-03-08T03:30:36.202Z,4.25
2019-03-08T03:33:04.692Z,4.08
2019-03-08T03:35:33.342Z,4.00
2019-03-08T03:38:01.906Z,3.72
2019-03-08T03:40:30.395Z,4.00
2019-03-08T03:42:58.854Z,4.40
2019-03-08T03:45:27.324Z,4.20
2019-03-08T03:47:55.792Z,5.20
2019-03-08T03:50:24.434Z,4.70
2019-03-08T03:52:52.922Z,4.50
2019-03-08T03:55:21.399Z,5.33
2019-03-08T03:57:49.878Z,5.30
2019-03-08T04:00:20.526Z,7.22
2019-03-08T04:02:49.048Z,5.67
2019-03-08T04:05:17.852Z,5.15
2019-03-08T04:07:46.319Z,5.08
2019-03-08T04:10:16.010Z,5.90
2019-03-08T04:12:44.502Z,5.55
2019-03-08T04:15:17.951Z,6.30
2019-03-08T04:17:46.709Z,6.75
2019-03-08T04:20:16.724Z,6.87
2019-03-08T04:22:45.377Z,7.87
2019-03-08T04:25:14.704Z,7.72
2019-03-08T04:27:43.237Z,7.37
2019-03-08T04:30:16.575Z,8.08
2019-03-08T04:32:45.366Z,9.13
2019-03-08T04:35:13.831Z,12.68
2019-03-08T04:37:42.595Z,10.55
2019-03-08T04:40:12.405Z,8.93
2019-03-08T04:42:40.941Z,8.95
2019-03-08T04:45:15.092Z,7.60
2019-03-08T04:47:43.770Z,8.55
2019-03-08T04:50:16.540Z,7.15
2019-03-08T04:52:45.182Z,7.50
2019-03-08T04:55:18.385Z,5.55
2019-03-08T04:57:47.385Z,6.75
2019-03-08T05:00:18.123Z,5.47
2019-03-08T05:02:46.687Z,5.60
2019-03-08T05:05:15.326Z,8.05
2019-03-08T05:07:43.874Z,6.95
2019-03-08T05:10:17.482Z,7.80
2019-03-08T05:12:46.578Z,6.97
2019-03-08T05:15:16.104Z,30.23
2019-03-08T05:17:44.721Z,7.45
2019-03-08T05:20:13.967Z,9.05
2019-03-08T05:22:42.429Z,9.53
2019-03-08T05:25:13.313Z,8.15
2019-03-08T05:27:42.049Z,10.18
2019-03-08T05:30:15.324Z,8.80
2019-03-08T05:32:43.811Z,8.43
2019-03-08T05:35:13.516Z,8.78
2019-03-08T05:37:42.293Z,8.23
2019-03-08T05:40:20.186Z,7.67
2019-03-08T05:42:47.626Z,9.58
2019-03-08T05:45:16.439Z,10.08
2019-03-08T05:47:44.971Z,8.90
2019-03-08T05:50:13.703Z,10.68
2019-03-08T05:52:42.715Z,12.15
2019-03-08T05:55:12.179Z,11.18
2019-03-08T05:57:40.797Z,20.15
2019-03-08T06:00:12.911Z,39.15
2019-03-08T06:02:41.419Z,25.80
2019-03-08T06:05:10.126Z,52.53
2019-03-08T06:07:38.794Z,131.93
2019-03-08T06:10:33.547Z,62.80
2019-03-08T06:13:03.373Z,136.82
2019-03-08T06:15:31.906Z,48.17
2019-03-08T06:18:00.726Z,17.05
2019-03-08T06:20:29.195Z,32.42
2019-03-08T06:22:57.750Z,7.50
2019-03-08T06:25:26.570Z,9.45
2019-03-08T06:27:55.047Z,12.10
2019-03-08T06:30:23.504Z,4.50
2019-03-08T06:32:52.415Z,5.92
2019-03-08T06:35:21.023Z,4.70
2019-03-08T06:37:49.514Z,4.60
2019-03-08T06:40:18.145Z,4.40
2019-03-08T06:42:46.648Z,6.78
2019-03-08T06:45:18.794Z,5.50
2019-03-08T06:47:47.449Z,5.40
2019-03-08T06:50:16.399Z,5.60
2019-03-08T06:52:45.006Z,5.90
2019-03-08T06:55:15.692Z,6.10
2019-03-08T06:57:44.219Z,7.72
2019-03-08T07:00:34.059Z,4.37
2019-03-08T07:03:03.200Z,7.22
2019-03-08T07:05:31.683Z,6.72
2019-03-08T07:08:00.158Z,9.40
2019-03-08T07:10:28.654Z,11.33
2019-03-08T07:13:03.122Z,8.45
2019-03-08T07:15:27.614Z,7.72
2019-03-08T07:17:56.081Z,7.65
2019-03-08T07:20:26.210Z,6.70
2019-03-08T07:22:56.340Z,6.08
2019-03-08T07:25:38.470Z,4.65
2019-03-08T07:30:40.953Z,5.08
2019-03-08T07:33:13.480Z,5.15
2019-03-08T07:35:58.958Z,4.47
2019-03-08T07:38:38.270Z,4.97
2019-03-08T07:41:08.375Z,5.20
2019-03-08T07:43:40.964Z,6.40
2019-03-08T07:46:29.251Z,9.33
2019-03-08T07:49:14.311Z,8.98
2019-03-08T07:51:44.457Z,13.13
2019-03-08T07:54:30.955Z,5.50
2019-03-08T07:57:17.632Z,6.50
2019-03-08T07:59:56.869Z,8.05
2019-03-08T08:02:29.498Z,8.55
2019-03-08T08:05:02.152Z,4.30
2019-03-08T08:07:37.798Z,5.10
2019-03-08T08:10:10.831Z,5.00
2019-03-08T08:12:57.211Z,5.00
2019-03-08T08:15:27.396Z,7.35
2019-03-08T08:18:03.263Z,5.70
2019-03-08T08:20:33.399Z,11.18
2019-03-08T08:23:09.316Z,11.43
2019-03-08T08:25:41.845Z,3.47
2019-03-08T08:28:21.330Z,4.12
2019-03-08T08:31:03.289Z,9.63
2019-03-08T08:33:36.118Z,2.17
2019-03-08T08:36:12.126Z,3.27
2019-03-08T08:38:54.198Z,3.77
2019-03-08T08:41:33.590Z,9.10
2019-03-08T08:44:19.132Z,7.83
2019-03-08T08:46:51.986Z,6.08
2019-03-08T08:49:27.878Z,6.78
2019-03-08T08:51:58.019Z,4.00
2019-03-08T08:54:44.574Z,4.15
2019-03-08T08:57:32.713Z,6.42
2019-03-08T09:00:05.423Z,3.45
2019-03-08T09:02:35.555Z,17.48
2019-03-08T09:05:06.569Z,9.98
2019-03-08T09:07:39.659Z,9.17
2019-03-08T09:10:14.645Z,7.42
2019-03-08T09:12:47.575Z,5.08
2019-03-08T09:15:20.925Z,7.42
2019-03-08T09:18:02.845Z,7.20
2019-03-08T09:20:44.999Z,5.10
2019-03-08T09:23:15.421Z,6.70
2019-03-08T09:25:45.524Z,4.30
2019-03-08T09:28:15.655Z,8.85
2019-03-08T09:30:52.786Z,8.10
2019-03-08T09:33:22.967Z,4.80
2019-03-08T09:35:55.921Z,5.00
2019-03-08T09:38:28.760Z,8.10
2019-03-08T09:41:14.985Z,5.33
2019-03-08T09:43:54.056Z,2.87
2019-03-08T09:46:36.984Z,14.60
2019-03-08T09:49:25.314Z,5.87
2019-03-08T09:52:04.589Z,7.20
2019-03-08T09:54:40.396Z,7.20
2019-03-08T09:57:22.742Z,5.80
2019-03-08T10:00:08.860Z,9.00
2019-03-08T10:02:54.001Z,10.80
2019-03-08T10:05:24.153Z,6.60
2019-03-08T10:08:10.490Z,4.67
2019-03-08T10:10:55.681Z,10.35
2019-03-08T10:13:42.088Z,14.68
2019-03-08T10:16:12.201Z,27.40
2019-03-08T10:18:42.324Z,13.58
2019-03-08T10:21:28.615Z,15.85
2019-03-08T10:24:02.917Z,12.18
2019-03-08T10:26:33.179Z,8.05
2019-03-08T10:29:03.289Z,9.90
2019-03-08T10:31:36.143Z,10.00
2019-03-08T10:34:11.979Z,21.33
2019-03-08T10:36:42.348Z,22.87
2019-03-08T10:39:18.396Z,7.65
2019-03-08T10:41:48.529Z,7.70
2019-03-08T10:44:21.631Z,18.80
2019-03-08T10:47:06.801Z,7.40
2019-03-08T10:49:55.302Z,34.13
2019-03-08T10:52:42.957Z,26.62
2019-03-08T10:55:14.645Z,40.48
2019-03-08T10:57:44.765Z,82.55
2019-03-08T11:00:16.216Z,19.60
2019-03-08T11:02:51.829Z,46.40
2019-03-08T11:05:21.969Z,32.15
2019-03-08T11:07:55.121Z,19.45
2019-03-08T11:10:25.247Z,43.50
2019-03-08T11:13:11.515Z,33.67
2019-03-08T11:15:43.682Z,30.08
2019-03-08T11:18:25.812Z,16.82
2019-03-08T11:21:08.535Z,16.60
2019-03-08T11:23:38.641Z,20.92
2019-03-08T11:26:17.566Z,14.85
2019-03-08T11:28:53.414Z,13.50
2019-03-08T11:31:26.242Z,5.25
2019-03-08T11:34:02.387Z,10.45
2019-03-08T11:36:35.239Z,5.30
2019-03-08T11:39:06.868Z,12.70
2019-03-08T11:41:37.006Z,9.35
2019-03-08T11:44:07.181Z,15.55
2019-03-08T11:46:43.257Z,24.40
2019-03-08T11:49:19.461Z,16.00
2019-03-08T11:51:59.217Z,12.55
2019-03-08T11:54:40.743Z,12.55
2019-03-08T11:57:09.426Z,13.35
2019-03-08T11:59:39.546Z,20.75
2019-03-08T12:02:25.933Z,7.08
2019-03-08T12:05:01.514Z,6.67
2019-03-08T12:07:31.846Z,7.12
2019-03-08T12:10:03.035Z,7.12
2019-03-08T12:12:33.140Z,16.10
2019-03-08T12:15:15.423Z,15.00
2019-03-08T12:17:51.272Z,7.03
2019-03-08T12:20:27.691Z,17.77
2019-03-08T12:23:00.496Z,8.50
2019-03-08T12:25:30.703Z,53.90
2019-03-08T12:28:19.105Z,76.30
2019-03-08T12:31:05.091Z,33.75
2019-03-08T12:33:38.129Z,11.83
2019-03-08T12:36:13.749Z,18.85
2019-03-08T12:38:43.864Z,17.73
2019-03-08T12:41:23.360Z,13.78
2019-03-08T12:43:56.737Z,16.32
2019-03-08T12:46:32.957Z,20.20
2019-03-08T12:49:11.821Z,12.13
2019-03-08T12:51:58.305Z,19.23
2019-03-08T12:54:43.250Z,11.08
2019-03-08T12:57:31.664Z,18.80
2019-03-08T13:00:07.744Z,14.65
2019-03-08T13:02:37.870Z,8.48
2019-03-08T13:05:24.481Z,13.95
2019-03-08T13:08:10.769Z,12.58
2019-03-08T13:10:39.312Z,15.80
2019-03-08T13:13:07.863Z,22.00
2019-03-08T13:15:36.352Z,13.75
2019-03-08T13:18:04.907Z,20.20
2019-03-08T13:20:33.388Z,13.83
2019-03-08T13:23:02.168Z,11.65
2019-03-08T13:25:30.681Z,65.15
2019-03-08T13:27:59.202Z,36.08
2019-03-08T13:30:27.755Z,45.05
2019-03-08T13:32:56.236Z,25.55
2019-03-08T13:35:24.716Z,7.90
2019-03-08T13:37:53.470Z,6.30
2019-03-08T13:40:21.936Z,13.50
2019-03-08T13:42:50.441Z,18.62
2019-03-08T13:45:21.427Z,6.35
2019-03-08T13:47:49.962Z,7.65
2019-03-08T13:50:18.529Z,15.48
2019-03-08T13:52:47.269Z,7.70
2019-03-08T13:55:16.915Z,12.80
2019-03-08T13:57:45.452Z,7.05
2019-03-08T14:00:18.892Z,11.33
2019-03-08T14:02:47.435Z,10.55
2019-03-08T14:05:16.354Z,7.60
2019-03-08T14:07:44.891Z,14.55
2019-03-08T14:10:16.438Z,7.53
2019-03-08T14:12:46.417Z,12.98
2019-03-08T14:15:16.145Z,8.90
2019-03-08T14:17:44.789Z,13.32
2019-03-08T14:20:16.486Z,6.95
2019-03-08T14:22:45.185Z,9.50
2019-03-08T14:25:13.787Z,13.90
2019-03-08T14:27:44.030Z,8.93
2019-03-08T14:30:24.487Z,6.53
2019-03-08T14:32:52.950Z,5.67
2019-03-08T14:35:21.860Z,6.45
2019-03-08T14:37:52.414Z,5.03
2019-03-08T14:40:34.010Z,6.60
2019-03-08T14:45:47.174Z,4.05
2019-03-08T14:48:15.645Z,6.62
2019-03-08T14:50:46.903Z,7.30
2019-03-08T14:53:15.740Z,7.67
2019-03-08T14:55:47.194Z,17.37
2019-03-08T14:58:15.659Z,27.32
2019-03-08T15:00:45.771Z,20.17
2019-03-08T15:03:14.322Z,32.85
2019-03-08T15:05:43.199Z,31.52
2019-03-08T15:08:13.600Z,17.55
2019-03-08T15:10:43.586Z,24.02
2019-03-08T15:13:13.352Z,29.90
2019-03-08T15:15:41.851Z,23.92
2019-03-08T15:18:10.460Z,21.57
2019-03-08T15:20:38.933Z,14.30
2019-03-08T15:23:07.505Z,10.15
2019-03-08T15:25:36.004Z,7.75
2019-03-08T15:28:04.758Z,12.55
2019-03-08T15:30:33.327Z,8.68
2019-03-08T15:33:02.101Z,10.65
2019-03-08T15:35:30.589Z,16.85
2019-03-08T15:37:59.134Z,16.07
2019-03-08T15:40:33.203Z,25.55
2019-03-08T15:45:27.641Z,23.20
2019-03-08T15:47:56.295Z,14.05
2019-03-08T15:50:24.772Z,33.33
2019-03-08T15:52:53.326Z,14.93
2019-03-08T15:55:21.924Z,11.15
2019-03-08T15:57:50.471Z,11.08
2019-03-08T16:00:22.842Z,9.50
2019-03-08T16:02:51.647Z,10.98
2019-03-08T16:05:23.816Z,13.78
2019-03-08T16:07:51.304Z,13.13
2019-03-08T16:10:21.321Z,24.25
2019-03-08T16:12:50.037Z,16.65
2019-03-08T16:15:18.663Z,20.17
2019-03-08T16:17:47.209Z,22.00
2019-03-08T16:20:20.260Z,21.05
2019-03-08T16:22:48.798Z,26.05
2019-03-08T16:25:18.063Z,26.00
2019-03-08T16:27:48.630Z,29.57
2019-03-08T16:30:22.915Z,17.17
2019-03-08T16:32:55.975Z,19.87
2019-03-08T16:35:24.292Z,25.80
2019-03-08T16:38:10.121Z,29.63
2019-03-08T16:40:40.090Z,34.83
2019-03-08T16:43:09.971Z,21.73
2019-03-08T16:45:40.012Z,22.85
2019-03-08T16:48:09.912Z,22.50
2019-03-08T16:50:39.779Z,23.18
2019-03-08T16:53:26.170Z,16.45
2019-03-08T16:55:55.126Z,19.45
2019-03-08T16:58:40.607Z,32.85
2019-03-08T17:01:10.731Z,37.95
2019-03-08T17:03:41.132Z,36.42
2019-03-08T17:06:11.282Z,42.15
2019-03-08T17:08:47.354Z,32.93
2019-03-08T17:11:17.493Z,35.28
2019-03-08T17:13:53.674Z,30.72
2019-03-08T17:16:38.716Z,40.12
2019-03-08T17:19:11.886Z,43.70
2019-03-08T17:21:40.677Z,43.90
2019-03-08T17:24:19.875Z,49.98
2019-03-08T17:26:52.702Z,56.15
2019-03-08T17:29:28.863Z,39.98
2019-03-08T17:32:17.302Z,48.55
2019-03-08T17:34:47.455Z,45.05
2019-03-08T17:37:26.783Z,41.53
2019-03-08T17:39:57.277Z,38.63
2019-03-08T17:42:30.115Z,50.73
2019-03-08T17:45:18.493Z,45.17
2019-03-08T17:47:57.772Z,42.15
2019-03-08T17:50:27.890Z,50.08
2019-03-08T17:53:14.316Z,47.55
2019-03-08T17:56:03.077Z,48.08
2019-03-08T17:58:49.662Z,47.70
2019-03-08T18:01:38.158Z,43.73
2019-03-08T18:04:08.343Z,36.10
2019-03-08T18:06:38.448Z,35.15
2019-03-08T18:09:27.156Z,31.73
2019-03-08T18:12:03.117Z,40.00
2019-03-08T18:14:39.144Z,36.42
2019-03-08T18:17:13.202Z,36.83
2019-03-08T18:19:43.503Z,33.08
2019-03-08T18:22:29.599Z,30.80
2019-03-08T18:25:11.784Z,28.85
2019-03-08T18:27:42.283Z,31.65
2019-03-08T18:30:17.596Z,34.33
2019-03-08T18:32:57.002Z,29.98
2019-03-08T18:35:44.273Z,22.00
2019-03-08T18:38:17.392Z,27.00
2019-03-08T18:40:47.512Z,55.15
2019-03-08T18:43:20.716Z,35.05
2019-03-08T18:45:50.858Z,33.45
2019-03-08T18:48:26.722Z,28.87
2019-03-08T18:50:56.860Z,26.75
2019-03-08T18:53:39.156Z,23.40
2019-03-08T18:56:09.263Z,21.77
2019-03-08T18:58:48.608Z,24.57
2019-03-08T19:01:27.286Z,25.50
2019-03-08T19:03:57.396Z,26.07
2019-03-08T19:06:27.510Z,34.98
2019-03-08T19:09:13.975Z,27.95
2019-03-08T19:11:44.080Z,31.27
2019-03-08T19:14:32.594Z,29.35
2019-03-08T19:17:02.730Z,37.40
2019-03-08T19:19:33.186Z,32.13
2019-03-08T19:22:06.430Z,43.40
2019-03-08T19:24:45.496Z,46.37
2019-03-08T19:27:32.358Z,34.90
2019-03-08T19:30:02.584Z,33.83
2019-03-08T19:32:38.463Z,28.42
2019-03-08T19:35:11.714Z,23.38
2019-03-08T19:37:54.168Z,26.82
2019-03-08T19:40:27.969Z,32.00
2019-03-08T19:42:58.214Z,22.77
2019-03-08T19:45:28.325Z,41.68
2019-03-08T19:48:10.796Z,32.23
2019-03-08T19:50:57.558Z,48.68
2019-03-08T19:53:44.511Z,33.50
2019-03-08T19:56:17.049Z,35.63
2019-03-08T19:58:56.012Z,52.10
2019-03-08T20:01:42.334Z,50.88
2019-03-08T20:04:18.811Z,50.38
2019-03-08T20:06:51.655Z,246.97
2019-03-08T20:09:27.786Z,251.45
2019-03-08T20:12:03.635Z,142.45
2019-03-08T20:14:33.755Z,115.32
2019-03-08T20:17:15.657Z,58.15
2019-03-08T20:20:02.280Z,146.07
2019-03-08T20:22:35.337Z,108.22
2019-03-08T20:25:14.661Z,112.20
2019-03-08T20:27:53.351Z,39.53
2019-03-08T20:30:28.960Z,33.67
2019-03-08T20:32:59.075Z,64.35
2019-03-08T20:35:29.198Z,21.60
2019-03-08T20:37:59.312Z,37.35
2019-03-08T20:40:34.978Z,40.20
2019-03-08T20:43:08.111Z,42.27
2019-03-08T20:45:50.302Z,39.60
2019-03-08T20:48:18.766Z,31.17
2019-03-08T20:50:47.267Z,28.00
2019-03-08T20:53:15.741Z,43.90
2019-03-08T20:55:44.499Z,29.35
2019-03-08T20:58:12.995Z,34.05
2019-03-08T21:00:41.749Z,25.88
2019-03-08T21:03:10.237Z,54.73
2019-03-08T21:05:38.703Z,26.45
2019-03-08T21:08:07.274Z,26.42
2019-03-08T21:10:35.749Z,20.20
2019-03-08T21:13:07.030Z,30.68
2019-03-08T21:15:35.500Z,34.63
2019-03-08T21:18:05.538Z,37.65
2019-03-08T21:20:34.075Z,41.58
2019-03-08T21:23:04.901Z,32.83
2019-03-08T21:25:33.368Z,27.95
2019-03-08T21:28:02.167Z,31.80
2019-03-08T21:30:30.635Z,27.70
2019-03-08T21:32:59.183Z,30.45
2019-03-08T21:35:28.014Z,37.53
2019-03-08T21:37:56.475Z,33.18
2019-03-08T21:40:25.024Z,62.35
2019-03-08T21:42:53.505Z,62.05
2019-03-08T21:45:21.977Z,52.53
2019-03-08T21:47:50.445Z,56.05
2019-03-08T21:50:19.151Z,45.83
2019-03-08T21:52:47.642Z,41.00
2019-03-08T21:55:16.144Z,51.90
2019-03-08T21:57:44.632Z,56.35
2019-03-08T22:00:18.751Z,25.40
2019-03-08T22:02:47.233Z,18.37
2019-03-08T22:05:17.348Z,18.75
2019-03-08T22:07:45.815Z,15.63
2019-03-08T22:10:34.606Z,8.68
2019-03-08T22:13:03.142Z,13.08
2019-03-08T22:15:31.674Z,16.00
2019-03-08T22:18:00.162Z,38.30
2019-03-08T22:20:28.637Z,27.25
2019-03-08T22:22:57.106Z,72.62
2019-03-08T22:25:25.858Z,71.85
2019-03-08T22:27:54.401Z,64.62
2019-03-08T22:30:23.045Z,54.55
2019-03-08T22:32:51.567Z,73.92
2019-03-08T22:35:20.112Z,64.58
2019-03-08T22:37:48.668Z,65.85
2019-03-08T22:40:17.236Z,48.73
2019-03-08T22:42:45.815Z,49.30
2019-03-08T22:45:14.352Z,46.75
2019-03-08T22:47:42.853Z,64.58
2019-03-08T22:50:15.295Z,73.57
2019-03-08T22:52:43.907Z,58.05
2019-03-08T22:55:14.759Z,60.98
2019-03-08T22:57:43.309Z,88.33
2019-03-08T23:00:31.421Z,113.57
2019-03-08T23:02:59.965Z,89.25
2019-03-08T23:05:28.470Z,78.80
2019-03-08T23:07:57.016Z,119.50
2019-03-08T23:10:26.477Z,148.80
2019-03-08T23:12:54.948Z,166.32
2019-03-08T23:15:23.452Z,96.65
2019-03-08T23:17:51.919Z,99.15
2019-03-08T23:20:20.419Z,84.52
2019-03-08T23:22:48.911Z,66.02
2019-03-08T23:25:19.435Z,64.55
2019-03-08T23:27:58.523Z,72.08
2019-03-08T23:30:27.465Z,62.15
2019-03-08T23:32:55.965Z,63.13
2019-03-08T23:35:24.438Z,62.70
2019-03-08T23:37:52.946Z,73.30
2019-03-08T23:40:21.409Z,98.37
2019-03-08T23:42:49.916Z,80.38
2019-03-08T23:45:18.398Z,98.45
2019-03-08T23:47:46.886Z,93.30
2019-03-08T23:50:15.369Z,92.90
2019-03-08T23:52:43.872Z,99.58
2019-03-08T23:55:12.356Z,96.97
2019-03-08T23:57:40.824Z,98.90
